sensor_id;sensor_type;location;lat;lon;timestamp;temperature;humidity
20911;DHT22;10615;42.702;23.314;2023-03-23T00:00:23;7.90;99.90
20911;DHT22;10615;42.702;23.314;2023-03-23T00:01:24;7.90;99.90
20911;DHT22;10615;42.702;23.314;2023-03-23T00:02:28;7.90;99.90
20911;DHT22;10615;42.702;23.314;2023-03-23T00:03:30;7.90;99.90
20911;DHT22;10615;42.702;23.314;2023-03-23T00:04:32;7.90;99.90
20911;DHT22;10615;42.702;23.314;2023-03-23T00:05:33;7.90;99.90
20911;DHT22;10615;42.702;23.314;2023-03-23T00:06:33;7.90;99.90
20911;DHT22;10615;42.702;23.314;2023-03-23T00:07:35;7.90;99.90
20911;DHT22;10615;42.702;23.314;2023-03-23T00:08:38;7.80;99.90
20911;DHT22;10615;42.702;23.314;2023-03-23T00:09:45;7.80;99.90
20911;DHT22;10615;42.702;23.314;2023-03-23T00:10:50;7.80;99.90
20911;DHT22;10615;42.702;23.314;2023-03-23T00:11:57;7.80;99.90
20911;DHT22;10615;42.702;23.314;2023-03-23T00:13:05;7.70;99.90
20911;DHT22;10615;42.702;23.314;2023-03-23T00:14:06;7.70;99.90
20911;DHT22;10615;42.702;23.314;2023-03-23T00:15:13;7.70;99.90
20911;DHT22;10615;42.702;23.314;2023-03-23T00:16:18;7.70;99.90
20911;DHT22;10615;42.702;23.314;2023-03-23T00:17:19;7.70;99.90
20911;DHT22;10615;42.702;23.314;2023-03-23T00:18:20;7.70;99.90
20911;DHT22;10615;42.702;23.314;2023-03-23T00:19:21;7.70;99.90
20911;DHT22;10615;42.702;23.314;2023-03-23T00:20:22;7.70;99.90
20911;DHT22;10615;42.702;23.314;2023-03-23T00:21:30;7.70;99.90
20911;DHT22;10615;42.702;23.314;2023-03-23T00:22:33;7.70;99.90
20911;DHT22;10615;42.702;23.314;2023-03-23T00:23:38;7.70;99.90
20911;DHT22;10615;42.702;23.314;2023-03-23T00:24:39;7.70;99.90
20911;DHT22;10615;42.702;23.314;2023-03-23T00:25:40;7.70;99.90
20911;DHT22;10615;42.702;23.314;2023-03-23T00:26:41;7.70;99.90
20911;DHT22;10615;42.702;23.314;2023-03-23T00:27:43;7.70;99.90
20911;DHT22;10615;42.702;23.314;2023-03-23T00:28:44;7.60;99.90
20911;DHT22;10615;42.702;23.314;2023-03-23T00:29:47;7.70;99.90
20911;DHT22;10615;42.702;23.314;2023-03-23T00:30:47;7.70;99.90
20911;DHT22;10615;42.702;23.314;2023-03-23T00:31:48;7.70;99.90
20911;DHT22;10615;42.702;23.314;2023-03-23T00:32:49;7.70;99.90
20911;DHT22;10615;42.702;23.314;2023-03-23T00:33:51;7.70;99.90
20911;DHT22;10615;42.702;23.314;2023-03-23T00:34:51;7.70;99.90
20911;DHT22;10615;42.702;23.314;2023-03-23T00:35:52;7.70;99.90
20911;DHT22;10615;42.702;23.314;2023-03-23T00:36:54;7.70;99.90
20911;DHT22;10615;42.702;23.314;2023-03-23T00:37:57;7.60;99.90
20911;DHT22;10615;42.702;23.314;2023-03-23T00:38:59;7.60;99.90
20911;DHT22;10615;42.702;23.314;2023-03-23T00:40:02;7.60;99.90
20911;DHT22;10615;42.702;23.314;2023-03-23T00:41:07;7.70;99.90
20911;DHT22;10615;42.702;23.314;2023-03-23T00:42:08;7.70;99.90
20911;DHT22;10615;42.702;23.314;2023-03-23T00:43:08;7.60;99.90
20911;DHT22;10615;42.702;23.314;2023-03-23T00:44:14;7.70;99.90
20911;DHT22;10615;42.702;23.314;2023-03-23T00:45:18;7.70;99.90
20911;DHT22;10615;42.702;23.314;2023-03-23T00:46:18;7.60;99.90
20911;DHT22;10615;42.702;23.314;2023-03-23T00:47:20;7.70;99.90
20911;DHT22;10615;42.702;23.314;2023-03-23T00:48:23;7.70;99.90
20911;DHT22;10615;42.702;23.314;2023-03-23T00:49:25;7.60;99.90
20911;DHT22;10615;42.702;23.314;2023-03-23T00:50:25;7.60;99.90
20911;DHT22;10615;42.702;23.314;2023-03-23T00:51:26;7.60;99.90
20911;DHT22;10615;42.702;23.314;2023-03-23T00:52:27;7.60;99.90
20911;DHT22;10615;42.702;23.314;2023-03-23T00:53:27;7.60;99.90
20911;DHT22;10615;42.702;23.314;2023-03-23T00:54:28;7.60;99.90
20911;DHT22;10615;42.702;23.314;2023-03-23T00:55:29;7.60;99.90
20911;DHT22;10615;42.702;23.314;2023-03-23T00:57:50;7.50;99.90
20911;DHT22;10615;42.702;23.314;2023-03-23T00:58:51;7.50;99.90
20911;DHT22;10615;42.702;23.314;2023-03-23T00:59:52;7.50;99.90
20911;DHT22;10615;42.702;23.314;2023-03-23T01:00:52;7.50;99.90
20911;DHT22;10615;42.702;23.314;2023-03-23T01:01:53;7.50;99.90
20911;DHT22;10615;42.702;23.314;2023-03-23T01:02:54;7.40;99.90
20911;DHT22;10615;42.702;23.314;2023-03-23T01:03:54;7.40;99.90
20911;DHT22;10615;42.702;23.314;2023-03-23T01:05:01;7.40;99.90
20911;DHT22;10615;42.702;23.314;2023-03-23T01:06:08;7.40;99.90
20911;DHT22;10615;42.702;23.314;2023-03-23T01:07:12;7.40;99.90
20911;DHT22;10615;42.702;23.314;2023-03-23T01:08:14;7.30;99.90
20911;DHT22;10615;42.702;23.314;2023-03-23T01:09:15;7.40;99.90
20911;DHT22;10615;42.702;23.314;2023-03-23T01:10:16;7.40;99.90
20911;DHT22;10615;42.702;23.314;2023-03-23T01:11:18;7.30;99.90
20911;DHT22;10615;42.702;23.314;2023-03-23T01:12:18;7.30;99.90
20911;DHT22;10615;42.702;23.314;2023-03-23T01:13:19;7.30;99.90
20911;DHT22;10615;42.702;23.314;2023-03-23T01:14:20;7.30;99.90
20911;DHT22;10615;42.702;23.314;2023-03-23T01:15:21;7.30;99.90
20911;DHT22;10615;42.702;23.314;2023-03-23T01:16:22;7.30;99.90
20911;DHT22;10615;42.702;23.314;2023-03-23T01:17:22;7.30;99.90
20911;DHT22;10615;42.702;23.314;2023-03-23T01:18:23;7.30;99.90
20911;DHT22;10615;42.702;23.314;2023-03-23T01:19:24;7.40;99.90
20911;DHT22;10615;42.702;23.314;2023-03-23T01:20:24;7.40;99.90
20911;DHT22;10615;42.702;23.314;2023-03-23T01:21:26;7.40;99.90
20911;DHT22;10615;42.702;23.314;2023-03-23T01:22:27;7.40;99.90
20911;DHT22;10615;42.702;23.314;2023-03-23T01:23:28;7.40;99.90
20911;DHT22;10615;42.702;23.314;2023-03-23T01:24:28;7.40;99.90
20911;DHT22;10615;42.702;23.314;2023-03-23T01:25:34;7.40;99.90
20911;DHT22;10615;42.702;23.314;2023-03-23T01:26:36;7.50;99.90
20911;DHT22;10615;42.702;23.314;2023-03-23T01:27:37;7.50;99.90
20911;DHT22;10615;42.702;23.314;2023-03-23T01:28:38;7.60;99.90
20911;DHT22;10615;42.702;23.314;2023-03-23T01:29:40;7.60;99.90
20911;DHT22;10615;42.702;23.314;2023-03-23T01:30:40;7.60;99.90
20911;DHT22;10615;42.702;23.314;2023-03-23T01:31:41;7.60;99.90
20911;DHT22;10615;42.702;23.314;2023-03-23T01:32:43;7.60;99.90
20911;DHT22;10615;42.702;23.314;2023-03-23T01:33:44;7.60;99.90
20911;DHT22;10615;42.702;23.314;2023-03-23T01:34:45;7.60;99.90
20911;DHT22;10615;42.702;23.314;2023-03-23T01:35:45;7.60;99.90
20911;DHT22;10615;42.702;23.314;2023-03-23T01:36:46;7.70;99.90
20911;DHT22;10615;42.702;23.314;2023-03-23T01:37:47;7.70;99.90
20911;DHT22;10615;42.702;23.314;2023-03-23T01:38:49;7.70;99.90
20911;DHT22;10615;42.702;23.314;2023-03-23T01:39:50;7.70;99.90
20911;DHT22;10615;42.702;23.314;2023-03-23T01:40:50;7.70;99.90
20911;DHT22;10615;42.702;23.314;2023-03-23T01:41:51;7.70;99.90
20911;DHT22;10615;42.702;23.314;2023-03-23T01:42:52;7.70;99.90
20911;DHT22;10615;42.702;23.314;2023-03-23T01:46:30;7.70;99.90
20911;DHT22;10615;42.702;23.314;2023-03-23T01:47:31;7.70;99.90
20911;DHT22;10615;42.702;23.314;2023-03-23T01:48:36;7.70;99.90
20911;DHT22;10615;42.702;23.314;2023-03-23T01:49:45;7.70;99.90
20911;DHT22;10615;42.702;23.314;2023-03-23T01:51:12;7.70;99.90
20911;DHT22;10615;42.702;23.314;2023-03-23T01:52:22;7.60;99.90
20911;DHT22;10615;42.702;23.314;2023-03-23T01:53:28;7.60;99.90
20911;DHT22;10615;42.702;23.314;2023-03-23T01:54:29;7.60;99.90
20911;DHT22;10615;42.702;23.314;2023-03-23T01:55:30;7.70;99.90
20911;DHT22;10615;42.702;23.314;2023-03-23T01:56:41;7.70;99.90
20911;DHT22;10615;42.702;23.314;2023-03-23T01:57:45;7.70;99.90
20911;DHT22;10615;42.702;23.314;2023-03-23T01:58:46;7.70;99.90
20911;DHT22;10615;42.702;23.314;2023-03-23T01:59:50;7.70;99.90
20911;DHT22;10615;42.702;23.314;2023-03-23T02:00:55;7.70;99.90
20911;DHT22;10615;42.702;23.314;2023-03-23T02:01:59;7.70;99.90
20911;DHT22;10615;42.702;23.314;2023-03-23T02:03:01;7.70;99.90
20911;DHT22;10615;42.702;23.314;2023-03-23T02:04:03;7.70;99.90
20911;DHT22;10615;42.702;23.314;2023-03-23T02:05:08;7.70;99.90
20911;DHT22;10615;42.702;23.314;2023-03-23T02:06:10;7.70;99.90
20911;DHT22;10615;42.702;23.314;2023-03-23T02:07:12;7.70;99.90
20911;DHT22;10615;42.702;23.314;2023-03-23T02:08:14;7.80;99.90
20911;DHT22;10615;42.702;23.314;2023-03-23T02:09:15;7.80;99.90
20911;DHT22;10615;42.702;23.314;2023-03-23T02:10:17;7.80;99.90
20911;DHT22;10615;42.702;23.314;2023-03-23T02:11:20;7.80;99.90
20911;DHT22;10615;42.702;23.314;2023-03-23T02:12:21;7.80;99.90
20911;DHT22;10615;42.702;23.314;2023-03-23T02:13:22;7.80;99.90
20911;DHT22;10615;42.702;23.314;2023-03-23T02:14:24;7.80;99.90
20911;DHT22;10615;42.702;23.314;2023-03-23T02:22:30;7.70;99.90
20911;DHT22;10615;42.702;23.314;2023-03-23T02:26:56;7.60;99.90
20911;DHT22;10615;42.702;23.314;2023-03-23T02:34:10;7.50;99.90
20911;DHT22;10615;42.702;23.314;2023-03-23T02:35:20;7.50;99.90
20911;DHT22;10615;42.702;23.314;2023-03-23T02:38:55;7.40;99.90
20911;DHT22;10615;42.702;23.314;2023-03-23T02:40:14;7.40;99.90
20911;DHT22;10615;42.702;23.314;2023-03-23T02:41:20;7.40;99.90
20911;DHT22;10615;42.702;23.314;2023-03-23T02:42:29;7.40;99.90
20911;DHT22;10615;42.702;23.314;2023-03-23T02:43:36;7.40;99.90
20911;DHT22;10615;42.702;23.314;2023-03-23T02:44:41;7.30;99.90
20911;DHT22;10615;42.702;23.314;2023-03-23T02:45:44;7.30;99.90
20911;DHT22;10615;42.702;23.314;2023-03-23T02:46:46;7.30;99.90
20911;DHT22;10615;42.702;23.314;2023-03-23T02:47:51;7.30;99.90
20911;DHT22;10615;42.702;23.314;2023-03-23T02:48:53;7.30;99.90
20911;DHT22;10615;42.702;23.314;2023-03-23T02:49:57;7.30;99.90
20911;DHT22;10615;42.702;23.314;2023-03-23T02:51:00;7.30;99.90
20911;DHT22;10615;42.702;23.314;2023-03-23T02:52:06;7.30;99.90
20911;DHT22;10615;42.702;23.314;2023-03-23T02:53:09;7.20;99.90
20911;DHT22;10615;42.702;23.314;2023-03-23T02:54:11;7.20;99.90
20911;DHT22;10615;42.702;23.314;2023-03-23T02:55:12;7.20;99.90
20911;DHT22;10615;42.702;23.314;2023-03-23T02:56:15;7.30;99.90
20911;DHT22;10615;42.702;23.314;2023-03-23T02:57:16;7.30;99.90
20911;DHT22;10615;42.702;23.314;2023-03-23T02:58:17;7.20;99.90
20911;DHT22;10615;42.702;23.314;2023-03-23T02:59:18;7.20;99.90
20911;DHT22;10615;42.702;23.314;2023-03-23T03:00:18;7.20;99.90
20911;DHT22;10615;42.702;23.314;2023-03-23T03:02:31;7.10;99.90
20911;DHT22;10615;42.702;23.314;2023-03-23T03:03:33;7.10;99.90
20911;DHT22;10615;42.702;23.314;2023-03-23T03:04:34;7.10;99.90
20911;DHT22;10615;42.702;23.314;2023-03-23T03:09:42;7.00;99.90
20911;DHT22;10615;42.702;23.314;2023-03-23T03:10:57;7.00;99.90
20911;DHT22;10615;42.702;23.314;2023-03-23T03:12:04;7.00;99.90
20911;DHT22;10615;42.702;23.314;2023-03-23T03:14:22;7.00;99.90
20911;DHT22;10615;42.702;23.314;2023-03-23T03:18:38;7.00;99.90
20911;DHT22;10615;42.702;23.314;2023-03-23T03:19:38;7.00;99.90
20911;DHT22;10615;42.702;23.314;2023-03-23T03:20:47;6.90;99.90
20911;DHT22;10615;42.702;23.314;2023-03-23T03:21:49;6.90;99.90
20911;DHT22;10615;42.702;23.314;2023-03-23T03:22:51;7.00;99.90
20911;DHT22;10615;42.702;23.314;2023-03-23T03:23:55;6.90;99.90
20911;DHT22;10615;42.702;23.314;2023-03-23T03:25:00;6.90;99.90
20911;DHT22;10615;42.702;23.314;2023-03-23T03:26:03;6.90;99.90
20911;DHT22;10615;42.702;23.314;2023-03-23T03:27:11;6.90;99.90
20911;DHT22;10615;42.702;23.314;2023-03-23T03:28:17;6.90;99.90
20911;DHT22;10615;42.702;23.314;2023-03-23T03:29:25;6.90;99.90
20911;DHT22;10615;42.702;23.314;2023-03-23T03:30:30;6.90;99.90
20911;DHT22;10615;42.702;23.314;2023-03-23T03:31:37;6.80;99.90
20911;DHT22;10615;42.702;23.314;2023-03-23T03:32:47;6.80;99.90
20911;DHT22;10615;42.702;23.314;2023-03-23T03:33:49;6.80;99.90
20911;DHT22;10615;42.702;23.314;2023-03-23T03:34:51;6.80;99.90
20911;DHT22;10615;42.702;23.314;2023-03-23T03:35:57;6.80;99.90
20911;DHT22;10615;42.702;23.314;2023-03-23T03:36:58;6.70;99.90
20911;DHT22;10615;42.702;23.314;2023-03-23T03:38:06;6.70;99.90
20911;DHT22;10615;42.702;23.314;2023-03-23T03:39:09;6.70;99.90
20911;DHT22;10615;42.702;23.314;2023-03-23T03:40:13;6.70;99.90
20911;DHT22;10615;42.702;23.314;2023-03-23T03:41:14;6.80;99.90
20911;DHT22;10615;42.702;23.314;2023-03-23T03:42:15;6.70;99.90
20911;DHT22;10615;42.702;23.314;2023-03-23T03:43:16;6.70;99.90
20911;DHT22;10615;42.702;23.314;2023-03-23T03:44:17;6.80;99.90
20911;DHT22;10615;42.702;23.314;2023-03-23T03:45:19;6.80;99.90
20911;DHT22;10615;42.702;23.314;2023-03-23T03:46:20;6.80;99.90
20911;DHT22;10615;42.702;23.314;2023-03-23T03:47:21;6.80;99.90
20911;DHT22;10615;42.702;23.314;2023-03-23T03:48:22;6.80;99.90
20911;DHT22;10615;42.702;23.314;2023-03-23T03:49:22;6.80;99.90
20911;DHT22;10615;42.702;23.314;2023-03-23T03:50:23;6.80;99.90
20911;DHT22;10615;42.702;23.314;2023-03-23T03:51:25;6.80;99.90
20911;DHT22;10615;42.702;23.314;2023-03-23T03:52:26;6.90;99.90
20911;DHT22;10615;42.702;23.314;2023-03-23T03:53:27;6.90;99.90
20911;DHT22;10615;42.702;23.314;2023-03-23T03:54:28;6.90;99.90
20911;DHT22;10615;42.702;23.314;2023-03-23T03:55:29;6.90;99.90
20911;DHT22;10615;42.702;23.314;2023-03-23T03:56:35;6.80;99.90
20911;DHT22;10615;42.702;23.314;2023-03-23T03:57:38;6.80;99.90
20911;DHT22;10615;42.702;23.314;2023-03-23T03:58:39;6.80;99.90
20911;DHT22;10615;42.702;23.314;2023-03-23T03:59:42;6.80;99.90
20911;DHT22;10615;42.702;23.314;2023-03-23T04:00:44;6.80;99.90
20911;DHT22;10615;42.702;23.314;2023-03-23T04:01:48;6.80;99.90
20911;DHT22;10615;42.702;23.314;2023-03-23T04:02:54;6.80;99.90
20911;DHT22;10615;42.702;23.314;2023-03-23T04:03:55;6.80;99.90
20911;DHT22;10615;42.702;23.314;2023-03-23T04:04:56;6.80;99.90
20911;DHT22;10615;42.702;23.314;2023-03-23T04:05:57;6.80;99.90
20911;DHT22;10615;42.702;23.314;2023-03-23T04:06:59;6.80;99.90
20911;DHT22;10615;42.702;23.314;2023-03-23T04:08:03;6.80;99.90
20911;DHT22;10615;42.702;23.314;2023-03-23T04:09:05;6.80;99.90
20911;DHT22;10615;42.702;23.314;2023-03-23T04:10:07;6.80;99.90
20911;DHT22;10615;42.702;23.314;2023-03-23T04:11:09;6.80;99.90
20911;DHT22;10615;42.702;23.314;2023-03-23T04:12:10;6.80;99.90
20911;DHT22;10615;42.702;23.314;2023-03-23T04:13:11;6.80;99.90
20911;DHT22;10615;42.702;23.314;2023-03-23T04:14:12;6.70;99.90
20911;DHT22;10615;42.702;23.314;2023-03-23T04:15:13;6.80;99.90
20911;DHT22;10615;42.702;23.314;2023-03-23T04:16:14;6.80;99.90
20911;DHT22;10615;42.702;23.314;2023-03-23T04:17:17;6.80;99.90
20911;DHT22;10615;42.702;23.314;2023-03-23T04:18:18;6.70;99.90
20911;DHT22;10615;42.702;23.314;2023-03-23T04:19:20;6.80;99.90
20911;DHT22;10615;42.702;23.314;2023-03-23T04:20:20;6.80;99.90
20911;DHT22;10615;42.702;23.314;2023-03-23T04:21:21;6.80;99.90
20911;DHT22;10615;42.702;23.314;2023-03-23T04:22:23;6.80;99.90
20911;DHT22;10615;42.702;23.314;2023-03-23T04:23:31;6.80;99.90
20911;DHT22;10615;42.702;23.314;2023-03-23T04:24:33;6.80;99.90
20911;DHT22;10615;42.702;23.314;2023-03-23T04:25:36;6.80;99.90
20911;DHT22;10615;42.702;23.314;2023-03-23T04:26:36;6.80;99.90
20911;DHT22;10615;42.702;23.314;2023-03-23T04:27:38;6.80;99.90
20911;DHT22;10615;42.702;23.314;2023-03-23T04:28:39;6.80;99.90
20911;DHT22;10615;42.702;23.314;2023-03-23T04:29:41;6.80;99.90
20911;DHT22;10615;42.702;23.314;2023-03-23T04:30:42;6.80;99.90
20911;DHT22;10615;42.702;23.314;2023-03-23T04:31:43;6.80;99.90
20911;DHT22;10615;42.702;23.314;2023-03-23T04:32:45;6.80;99.90
20911;DHT22;10615;42.702;23.314;2023-03-23T04:33:46;6.80;99.90
20911;DHT22;10615;42.702;23.314;2023-03-23T04:34:47;6.80;99.90
20911;DHT22;10615;42.702;23.314;2023-03-23T04:35:49;6.80;99.90
20911;DHT22;10615;42.702;23.314;2023-03-23T04:36:49;6.80;99.90
20911;DHT22;10615;42.702;23.314;2023-03-23T04:37:51;6.80;99.90
20911;DHT22;10615;42.702;23.314;2023-03-23T04:38:51;6.80;99.90
20911;DHT22;10615;42.702;23.314;2023-03-23T04:39:55;6.80;99.90
20911;DHT22;10615;42.702;23.314;2023-03-23T04:41:00;6.80;99.90
20911;DHT22;10615;42.702;23.314;2023-03-23T04:42:02;6.80;99.90
20911;DHT22;10615;42.702;23.314;2023-03-23T04:43:03;6.90;99.90
20911;DHT22;10615;42.702;23.314;2023-03-23T04:44:06;6.90;99.90
20911;DHT22;10615;42.702;23.314;2023-03-23T04:45:08;6.90;99.90
20911;DHT22;10615;42.702;23.314;2023-03-23T04:46:09;6.90;99.90
20911;DHT22;10615;42.702;23.314;2023-03-23T04:47:10;6.90;99.90
20911;DHT22;10615;42.702;23.314;2023-03-23T04:48:11;6.90;99.90
20911;DHT22;10615;42.702;23.314;2023-03-23T04:49:13;6.90;99.90
20911;DHT22;10615;42.702;23.314;2023-03-23T04:50:14;6.90;99.90
20911;DHT22;10615;42.702;23.314;2023-03-23T04:51:15;6.90;99.90
20911;DHT22;10615;42.702;23.314;2023-03-23T04:52:16;6.90;99.90
20911;DHT22;10615;42.702;23.314;2023-03-23T04:53:17;6.90;99.90
20911;DHT22;10615;42.702;23.314;2023-03-23T04:54:18;6.90;99.90
20911;DHT22;10615;42.702;23.314;2023-03-23T04:55:19;7.00;99.90
20911;DHT22;10615;42.702;23.314;2023-03-23T04:56:20;7.00;99.90
20911;DHT22;10615;42.702;23.314;2023-03-23T04:57:22;7.00;99.90
20911;DHT22;10615;42.702;23.314;2023-03-23T04:58:23;7.10;99.90
20911;DHT22;10615;42.702;23.314;2023-03-23T04:59:25;7.10;99.90
20911;DHT22;10615;42.702;23.314;2023-03-23T05:00:28;7.10;99.90
20911;DHT22;10615;42.702;23.314;2023-03-23T05:01:29;7.10;99.90
20911;DHT22;10615;42.702;23.314;2023-03-23T05:02:29;7.20;99.90
20911;DHT22;10615;42.702;23.314;2023-03-23T05:03:30;7.20;99.90
20911;DHT22;10615;42.702;23.314;2023-03-23T05:04:31;7.20;99.90
20911;DHT22;10615;42.702;23.314;2023-03-23T05:05:34;7.30;99.90
20911;DHT22;10615;42.702;23.314;2023-03-23T05:06:35;7.30;99.90
20911;DHT22;10615;42.702;23.314;2023-03-23T05:07:36;7.30;99.90
20911;DHT22;10615;42.702;23.314;2023-03-23T05:08:37;7.30;99.90
20911;DHT22;10615;42.702;23.314;2023-03-23T05:09:41;7.30;99.90
20911;DHT22;10615;42.702;23.314;2023-03-23T05:10:41;7.30;99.90
20911;DHT22;10615;42.702;23.314;2023-03-23T05:11:42;7.30;99.90
20911;DHT22;10615;42.702;23.314;2023-03-23T05:12:43;7.30;99.90
20911;DHT22;10615;42.702;23.314;2023-03-23T05:13:44;7.40;99.90
20911;DHT22;10615;42.702;23.314;2023-03-23T05:14:45;7.30;99.90
20911;DHT22;10615;42.702;23.314;2023-03-23T05:15:46;7.40;99.90
20911;DHT22;10615;42.702;23.314;2023-03-23T05:16:47;7.30;99.90
20911;DHT22;10615;42.702;23.314;2023-03-23T05:17:52;7.30;99.90
20911;DHT22;10615;42.702;23.314;2023-03-23T05:18:53;7.30;99.90
20911;DHT22;10615;42.702;23.314;2023-03-23T05:19:58;7.30;99.90
20911;DHT22;10615;42.702;23.314;2023-03-23T05:21:02;7.30;99.90
20911;DHT22;10615;42.702;23.314;2023-03-23T05:22:03;7.30;99.90
20911;DHT22;10615;42.702;23.314;2023-03-23T05:23:04;7.30;99.90
20911;DHT22;10615;42.702;23.314;2023-03-23T05:24:06;7.30;99.90
20911;DHT22;10615;42.702;23.314;2023-03-23T05:25:07;7.30;99.90
20911;DHT22;10615;42.702;23.314;2023-03-23T05:26:11;7.20;99.90
20911;DHT22;10615;42.702;23.314;2023-03-23T05:27:12;7.30;99.90
20911;DHT22;10615;42.702;23.314;2023-03-23T05:28:15;7.30;99.90
20911;DHT22;10615;42.702;23.314;2023-03-23T05:29:15;7.30;99.90
20911;DHT22;10615;42.702;23.314;2023-03-23T05:30:16;7.40;99.90
20911;DHT22;10615;42.702;23.314;2023-03-23T05:31:17;7.50;99.90
20911;DHT22;10615;42.702;23.314;2023-03-23T05:32:18;7.60;99.90
20911;DHT22;10615;42.702;23.314;2023-03-23T05:33:21;7.70;99.90
20911;DHT22;10615;42.702;23.314;2023-03-23T05:34:22;7.80;99.90
20911;DHT22;10615;42.702;23.314;2023-03-23T05:35:23;7.90;99.90
20911;DHT22;10615;42.702;23.314;2023-03-23T05:36:23;8.00;99.90
20911;DHT22;10615;42.702;23.314;2023-03-23T05:37:25;8.10;99.90
20911;DHT22;10615;42.702;23.314;2023-03-23T05:38:27;8.20;99.90
20911;DHT22;10615;42.702;23.314;2023-03-23T05:39:29;8.30;99.90
20911;DHT22;10615;42.702;23.314;2023-03-23T05:40:29;8.40;99.90
20911;DHT22;10615;42.702;23.314;2023-03-23T05:41:30;8.40;99.90
20911;DHT22;10615;42.702;23.314;2023-03-23T05:42:32;8.50;99.90
20911;DHT22;10615;42.702;23.314;2023-03-23T05:43:33;8.50;99.90
20911;DHT22;10615;42.702;23.314;2023-03-23T05:44:34;8.60;99.90
20911;DHT22;10615;42.702;23.314;2023-03-23T05:45:35;8.60;99.90
20911;DHT22;10615;42.702;23.314;2023-03-23T05:46:36;8.60;99.90
20911;DHT22;10615;42.702;23.314;2023-03-23T05:47:40;8.70;99.90
20911;DHT22;10615;42.702;23.314;2023-03-23T05:48:41;8.70;99.90
20911;DHT22;10615;42.702;23.314;2023-03-23T05:49:42;8.70;99.90
20911;DHT22;10615;42.702;23.314;2023-03-23T05:50:42;8.80;99.90
20911;DHT22;10615;42.702;23.314;2023-03-23T05:51:44;8.80;99.90
20911;DHT22;10615;42.702;23.314;2023-03-23T05:52:46;8.90;99.90
20911;DHT22;10615;42.702;23.314;2023-03-23T05:53:46;9.20;99.90
20911;DHT22;10615;42.702;23.314;2023-03-23T05:54:48;9.30;99.90
20911;DHT22;10615;42.702;23.314;2023-03-23T05:55:49;9.30;99.90
20911;DHT22;10615;42.702;23.314;2023-03-23T05:56:49;9.40;99.90
20911;DHT22;10615;42.702;23.314;2023-03-23T05:57:50;9.50;99.90
20911;DHT22;10615;42.702;23.314;2023-03-23T05:58:51;9.60;99.90
20911;DHT22;10615;42.702;23.314;2023-03-23T05:59:53;9.70;99.90
20911;DHT22;10615;42.702;23.314;2023-03-23T06:00:54;9.80;99.90
20911;DHT22;10615;42.702;23.314;2023-03-23T06:01:55;10.20;99.90
20911;DHT22;10615;42.702;23.314;2023-03-23T06:02:57;10.50;99.90
20911;DHT22;10615;42.702;23.314;2023-03-23T06:03:58;10.70;99.90
20911;DHT22;10615;42.702;23.314;2023-03-23T06:04:59;10.80;99.90
20911;DHT22;10615;42.702;23.314;2023-03-23T06:05:59;10.80;99.30
20911;DHT22;10615;42.702;23.314;2023-03-23T06:07:01;10.90;98.80
20911;DHT22;10615;42.702;23.314;2023-03-23T06:08:02;11.00;97.90
20911;DHT22;10615;42.702;23.314;2023-03-23T06:09:03;11.40;97.50
20911;DHT22;10615;42.702;23.314;2023-03-23T06:10:05;11.70;96.90
20911;DHT22;10615;42.702;23.314;2023-03-23T06:11:07;11.80;95.90
20911;DHT22;10615;42.702;23.314;2023-03-23T06:12:09;11.80;95.20
20911;DHT22;10615;42.702;23.314;2023-03-23T06:13:10;11.80;94.40
20911;DHT22;10615;42.702;23.314;2023-03-23T06:14:11;12.00;94.00
20911;DHT22;10615;42.702;23.314;2023-03-23T06:15:13;12.20;94.10
20911;DHT22;10615;42.702;23.314;2023-03-23T06:16:14;12.30;93.10
20911;DHT22;10615;42.702;23.314;2023-03-23T06:17:16;12.40;92.70
20911;DHT22;10615;42.702;23.314;2023-03-23T06:18:17;12.50;92.70
20911;DHT22;10615;42.702;23.314;2023-03-23T06:19:18;12.60;91.90
20911;DHT22;10615;42.702;23.314;2023-03-23T06:20:18;12.90;91.50
20911;DHT22;10615;42.702;23.314;2023-03-23T06:21:19;13.10;91.00
20911;DHT22;10615;42.702;23.314;2023-03-23T06:22:22;13.50;90.40
20911;DHT22;10615;42.702;23.314;2023-03-23T06:23:22;13.40;88.90
20911;DHT22;10615;42.702;23.314;2023-03-23T06:24:24;13.30;87.60
20911;DHT22;10615;42.702;23.314;2023-03-23T06:25:26;13.50;86.80
20911;DHT22;10615;42.702;23.314;2023-03-23T06:26:36;14.20;86.60
20911;DHT22;10615;42.702;23.314;2023-03-23T06:27:38;14.20;85.20
20911;DHT22;10615;42.702;23.314;2023-03-23T06:28:38;14.20;83.40
20911;DHT22;10615;42.702;23.314;2023-03-23T06:29:39;14.10;82.00
20911;DHT22;10615;42.702;23.314;2023-03-23T06:30:40;14.00;81.20
20911;DHT22;10615;42.702;23.314;2023-03-23T06:31:43;14.20;81.30
20911;DHT22;10615;42.702;23.314;2023-03-23T06:32:45;14.70;81.50
20911;DHT22;10615;42.702;23.314;2023-03-23T06:33:47;15.00;80.80
20911;DHT22;10615;42.702;23.314;2023-03-23T06:34:48;15.20;79.80
20911;DHT22;10615;42.702;23.314;2023-03-23T06:35:48;15.50;79.00
20911;DHT22;10615;42.702;23.314;2023-03-23T06:36:50;15.80;78.10
20911;DHT22;10615;42.702;23.314;2023-03-23T06:37:50;16.10;77.10
20911;DHT22;10615;42.702;23.314;2023-03-23T06:38:52;16.40;76.00
20911;DHT22;10615;42.702;23.314;2023-03-23T06:39:52;16.90;74.70
20911;DHT22;10615;42.702;23.314;2023-03-23T06:40:54;17.50;72.70
20911;DHT22;10615;42.702;23.314;2023-03-23T06:41:57;18.00;70.40
20911;DHT22;10615;42.702;23.314;2023-03-23T06:42:59;18.40;68.30
20911;DHT22;10615;42.702;23.314;2023-03-23T06:44:00;18.90;66.20
20911;DHT22;10615;42.702;23.314;2023-03-23T06:45:03;19.40;64.40
20911;DHT22;10615;42.702;23.314;2023-03-23T06:46:05;19.90;62.30
20911;DHT22;10615;42.702;23.314;2023-03-23T06:47:06;20.30;60.30
20911;DHT22;10615;42.702;23.314;2023-03-23T06:48:07;20.60;59.00
20911;DHT22;10615;42.702;23.314;2023-03-23T06:49:08;21.00;57.80
20911;DHT22;10615;42.702;23.314;2023-03-23T06:50:10;21.40;56.90
20911;DHT22;10615;42.702;23.314;2023-03-23T06:51:11;21.80;55.70
20911;DHT22;10615;42.702;23.314;2023-03-23T06:52:11;22.00;54.50
20911;DHT22;10615;42.702;23.314;2023-03-23T06:53:12;22.10;53.70
20911;DHT22;10615;42.702;23.314;2023-03-23T06:54:13;22.40;53.10
20911;DHT22;10615;42.702;23.314;2023-03-23T06:55:14;22.60;52.90
20911;DHT22;10615;42.702;23.314;2023-03-23T06:56:16;23.00;52.90
20911;DHT22;10615;42.702;23.314;2023-03-23T06:57:17;23.30;52.50
20911;DHT22;10615;42.702;23.314;2023-03-23T06:58:18;23.50;51.70
20911;DHT22;10615;42.702;23.314;2023-03-23T06:59:18;23.80;51.10
20911;DHT22;10615;42.702;23.314;2023-03-23T07:00:19;24.00;50.50
20911;DHT22;10615;42.702;23.314;2023-03-23T07:01:20;24.20;49.60
20911;DHT22;10615;42.702;23.314;2023-03-23T07:02:21;24.50;49.20
20911;DHT22;10615;42.702;23.314;2023-03-23T07:03:22;24.80;49.00
20911;DHT22;10615;42.702;23.314;2023-03-23T07:04:23;25.00;48.00